Bocaiuva, Brazil
Current Conditions -  °F | °C
As of 8:00 AM on Saturday 22 Nov 2014 (Local Time) from SBMK Reporting Station
Few Clouds Few Clouds  
Wind Chill: 77°   Ceiling: Unl
Heat Index: 79°   Visibility: 6mi
Dew Point: 64°   Wind: 7mph
Humidity: 65%   Direction: 70°ENE
Pressure: 30"   Gusts: NA
Location:  17.11°S, 43.81°W
Report Text: SBMK 221000Z 07006KT 020V110 9999 FEW025 25/18 Q1016
Loading
Personal Weather Stations






























Interactive Weather Map New forecast layout! Learn more

10-Day Weather Forecast

Advertisements
Track Severe Weather on mobile